sensor_id;sensor_type;location;lat;lon;timestamp;temperature;humidity
47626;DHT22;33342;45.574;9.252;2023-04-25T00:02:25;18.50;99.90
47626;DHT22;33342;45.574;9.252;2023-04-25T00:04:52;18.50;99.90
47626;DHT22;33342;45.574;9.252;2023-04-25T00:07:19;18.50;99.90
47626;DHT22;33342;45.574;9.252;2023-04-25T00:09:46;18.40;99.90
47626;DHT22;33342;45.574;9.252;2023-04-25T00:12:13;18.40;99.90
47626;DHT22;33342;45.574;9.252;2023-04-25T00:14:40;18.40;99.90
47626;DHT22;33342;45.574;9.252;2023-04-25T00:17:07;18.40;99.90
47626;DHT22;33342;45.574;9.252;2023-04-25T00:19:34;18.40;99.90
47626;DHT22;33342;45.574;9.252;2023-04-25T00:22:01;18.40;99.90
47626;DHT22;33342;45.574;9.252;2023-04-25T00:24:28;18.40;99.90
47626;DHT22;33342;45.574;9.252;2023-04-25T00:26:55;18.40;99.90
47626;DHT22;33342;45.574;9.252;2023-04-25T00:29:22;18.40;99.90
47626;DHT22;33342;45.574;9.252;2023-04-25T00:31:49;18.30;99.90
47626;DHT22;33342;45.574;9.252;2023-04-25T00:34:16;18.30;99.90
47626;DHT22;33342;45.574;9.252;2023-04-25T00:36:43;18.30;99.90
47626;DHT22;33342;45.574;9.252;2023-04-25T00:39:12;18.30;99.90
47626;DHT22;33342;45.574;9.252;2023-04-25T00:41:39;18.30;99.90
47626;DHT22;33342;45.574;9.252;2023-04-25T00:44:09;18.20;99.90
47626;DHT22;33342;45.574;9.252;2023-04-25T00:46:38;18.20;99.90
47626;DHT22;33342;45.574;9.252;2023-04-25T00:49:06;18.20;99.90
47626;DHT22;33342;45.574;9.252;2023-04-25T00:51:33;18.10;99.90
47626;DHT22;33342;45.574;9.252;2023-04-25T00:54:01;18.20;99.90
47626;DHT22;33342;45.574;9.252;2023-04-25T00:56:28;18.20;99.90
47626;DHT22;33342;45.574;9.252;2023-04-25T00:58:56;18.20;99.90
47626;DHT22;33342;45.574;9.252;2023-04-25T01:01:23;18.20;99.90
47626;DHT22;33342;45.574;9.252;2023-04-25T01:03:50;18.20;99.90
47626;DHT22;33342;45.574;9.252;2023-04-25T01:06:19;18.20;99.90
47626;DHT22;33342;45.574;9.252;2023-04-25T01:08:47;18.20;99.90
47626;DHT22;33342;45.574;9.252;2023-04-25T01:11:14;18.20;99.90
47626;DHT22;33342;45.574;9.252;2023-04-25T01:13:41;18.20;99.90
47626;DHT22;33342;45.574;9.252;2023-04-25T01:16:08;18.20;99.90
47626;DHT22;33342;45.574;9.252;2023-04-25T01:18:38;18.20;99.90
47626;DHT22;33342;45.574;9.252;2023-04-25T01:21:09;18.20;99.90
47626;DHT22;33342;45.574;9.252;2023-04-25T01:23:39;18.20;99.90
47626;DHT22;33342;45.574;9.252;2023-04-25T01:26:09;18.10;99.90
47626;DHT22;33342;45.574;9.252;2023-04-25T01:28:37;18.10;99.90
47626;DHT22;33342;45.574;9.252;2023-04-25T01:31:09;18.10;99.90
47626;DHT22;33342;45.574;9.252;2023-04-25T01:33:36;18.00;99.90
47626;DHT22;33342;45.574;9.252;2023-04-25T01:36:04;18.00;99.90
47626;DHT22;33342;45.574;9.252;2023-04-25T01:38:31;18.00;99.90
47626;DHT22;33342;45.574;9.252;2023-04-25T01:41:00;17.90;99.90
47626;DHT22;33342;45.574;9.252;2023-04-25T01:43:27;18.00;99.90
47626;DHT22;33342;45.574;9.252;2023-04-25T01:45:55;17.90;99.90
47626;DHT22;33342;45.574;9.252;2023-04-25T01:48:23;18.00;99.90
47626;DHT22;33342;45.574;9.252;2023-04-25T01:50:51;17.90;99.90
47626;DHT22;33342;45.574;9.252;2023-04-25T01:53:18;18.00;99.90
47626;DHT22;33342;45.574;9.252;2023-04-25T01:55:46;17.90;99.90
47626;DHT22;33342;45.574;9.252;2023-04-25T01:58:15;17.90;99.90
47626;DHT22;33342;45.574;9.252;2023-04-25T02:01:01;17.90;99.90
47626;DHT22;33342;45.574;9.252;2023-04-25T02:03:35;17.90;99.90
47626;DHT22;33342;45.574;9.252;2023-04-25T02:06:07;17.90;99.90
47626;DHT22;33342;45.574;9.252;2023-04-25T02:08:37;17.90;99.90
47626;DHT22;33342;45.574;9.252;2023-04-25T02:11:04;17.90;99.90
47626;DHT22;33342;45.574;9.252;2023-04-25T02:13:39;17.90;99.90
47626;DHT22;33342;45.574;9.252;2023-04-25T02:16:23;17.90;99.90
47626;DHT22;33342;45.574;9.252;2023-04-25T02:18:52;17.80;99.90
47626;DHT22;33342;45.574;9.252;2023-04-25T02:21:19;17.80;99.90
47626;DHT22;33342;45.574;9.252;2023-04-25T02:23:46;17.80;99.90
47626;DHT22;33342;45.574;9.252;2023-04-25T02:26:16;17.80;99.90
47626;DHT22;33342;45.574;9.252;2023-04-25T02:28:43;17.80;99.90
47626;DHT22;33342;45.574;9.252;2023-04-25T02:31:10;17.80;99.90
47626;DHT22;33342;45.574;9.252;2023-04-25T02:33:37;17.90;99.90
47626;DHT22;33342;45.574;9.252;2023-04-25T02:36:05;17.80;99.90
47626;DHT22;33342;45.574;9.252;2023-04-25T02:38:32;17.80;99.90
47626;DHT22;33342;45.574;9.252;2023-04-25T02:41:00;17.80;99.90
47626;DHT22;33342;45.574;9.252;2023-04-25T02:43:27;17.80;99.90
47626;DHT22;33342;45.574;9.252;2023-04-25T02:45:54;17.80;99.90
47626;DHT22;33342;45.574;9.252;2023-04-25T02:48:21;17.80;99.90
47626;DHT22;33342;45.574;9.252;2023-04-25T02:50:48;17.70;99.90
47626;DHT22;33342;45.574;9.252;2023-04-25T02:53:15;17.70;99.90
47626;DHT22;33342;45.574;9.252;2023-04-25T02:55:47;17.70;99.90
47626;DHT22;33342;45.574;9.252;2023-04-25T02:58:14;17.70;99.90
47626;DHT22;33342;45.574;9.252;2023-04-25T03:00:46;17.70;99.90
47626;DHT22;33342;45.574;9.252;2023-04-25T03:03:13;17.70;99.90
47626;DHT22;33342;45.574;9.252;2023-04-25T03:05:40;17.70;99.90
47626;DHT22;33342;45.574;9.252;2023-04-25T03:08:08;17.60;99.90
47626;DHT22;33342;45.574;9.252;2023-04-25T03:10:38;17.60;99.90
47626;DHT22;33342;45.574;9.252;2023-04-25T03:13:08;17.60;99.90
47626;DHT22;33342;45.574;9.252;2023-04-25T03:15:36;17.60;99.90
47626;DHT22;33342;45.574;9.252;2023-04-25T03:18:03;17.60;99.90
47626;DHT22;33342;45.574;9.252;2023-04-25T03:20:33;17.60;99.90
47626;DHT22;33342;45.574;9.252;2023-04-25T03:23:00;17.50;99.90
47626;DHT22;33342;45.574;9.252;2023-04-25T03:25:28;17.50;99.90
47626;DHT22;33342;45.574;9.252;2023-04-25T03:27:55;17.50;99.90
47626;DHT22;33342;45.574;9.252;2023-04-25T03:30:22;17.50;99.90
47626;DHT22;33342;45.574;9.252;2023-04-25T03:32:49;17.50;99.90
47626;DHT22;33342;45.574;9.252;2023-04-25T03:35:17;17.50;99.90
47626;DHT22;33342;45.574;9.252;2023-04-25T03:37:44;17.40;99.90
47626;DHT22;33342;45.574;9.252;2023-04-25T03:40:17;17.40;99.90
47626;DHT22;33342;45.574;9.252;2023-04-25T03:43:06;17.40;99.90
47626;DHT22;33342;45.574;9.252;2023-04-25T03:45:35;17.40;99.90
47626;DHT22;33342;45.574;9.252;2023-04-25T03:48:02;17.40;99.90
47626;DHT22;33342;45.574;9.252;2023-04-25T03:50:30;17.40;99.90
47626;DHT22;33342;45.574;9.252;2023-04-25T03:52:57;17.40;99.90
47626;DHT22;33342;45.574;9.252;2023-04-25T03:55:26;17.30;99.90
47626;DHT22;33342;45.574;9.252;2023-04-25T03:57:53;17.30;99.90
47626;DHT22;33342;45.574;9.252;2023-04-25T04:00:21;17.30;99.90
47626;DHT22;33342;45.574;9.252;2023-04-25T04:02:51;17.20;99.90
47626;DHT22;33342;45.574;9.252;2023-04-25T04:05:18;17.20;99.90
47626;DHT22;33342;45.574;9.252;2023-04-25T04:07:52;17.20;99.90
47626;DHT22;33342;45.574;9.252;2023-04-25T04:10:19;17.20;99.90
47626;DHT22;33342;45.574;9.252;2023-04-25T04:12:46;17.10;99.90
47626;DHT22;33342;45.574;9.252;2023-04-25T04:15:13;17.10;99.90
47626;DHT22;33342;45.574;9.252;2023-04-25T04:17:43;17.10;99.90
47626;DHT22;33342;45.574;9.252;2023-04-25T04:20:10;17.00;99.90
47626;DHT22;33342;45.574;9.252;2023-04-25T04:22:39;17.00;99.90
47626;DHT22;33342;45.574;9.252;2023-04-25T04:25:10;17.00;99.90
47626;DHT22;33342;45.574;9.252;2023-04-25T04:27:56;16.90;99.90
47626;DHT22;33342;45.574;9.252;2023-04-25T04:30:33;17.00;99.90
47626;DHT22;33342;45.574;9.252;2023-04-25T04:33:05;16.90;99.90
47626;DHT22;33342;45.574;9.252;2023-04-25T04:35:33;16.90;99.90
47626;DHT22;33342;45.574;9.252;2023-04-25T04:38:00;16.90;99.90
47626;DHT22;33342;45.574;9.252;2023-04-25T04:40:31;16.90;99.90
47626;DHT22;33342;45.574;9.252;2023-04-25T04:43:08;16.90;99.90
47626;DHT22;33342;45.574;9.252;2023-04-25T04:46:02;16.90;99.90
47626;DHT22;33342;45.574;9.252;2023-04-25T04:48:33;16.90;99.90
47626;DHT22;33342;45.574;9.252;2023-04-25T04:51:19;16.80;99.90
47626;DHT22;33342;45.574;9.252;2023-04-25T04:53:53;16.80;99.90
47626;DHT22;33342;45.574;9.252;2023-04-25T04:56:46;16.80;99.90
47626;DHT22;33342;45.574;9.252;2023-04-25T04:59:33;16.80;99.90
47626;DHT22;33342;45.574;9.252;2023-04-25T05:02:18;16.80;99.90
47626;DHT22;33342;45.574;9.252;2023-04-25T05:05:20;16.80;99.90
47626;DHT22;33342;45.574;9.252;2023-04-25T05:07:59;16.80;99.90
47626;DHT22;33342;45.574;9.252;2023-04-25T05:10:40;16.80;99.90
47626;DHT22;33342;45.574;9.252;2023-04-25T05:13:22;16.80;99.90
47626;DHT22;33342;45.574;9.252;2023-04-25T05:16:12;16.80;99.90
47626;DHT22;33342;45.574;9.252;2023-04-25T05:18:55;16.70;99.90
47626;DHT22;33342;45.574;9.252;2023-04-25T05:21:57;16.80;99.90
47626;DHT22;33342;45.574;9.252;2023-04-25T05:24:38;16.80;99.90
47626;DHT22;33342;45.574;9.252;2023-04-25T05:27:28;16.80;99.90
47626;DHT22;33342;45.574;9.252;2023-04-25T05:29:57;16.80;99.90
47626;DHT22;33342;45.574;9.252;2023-04-25T05:32:34;16.80;99.90
47626;DHT22;33342;45.574;9.252;2023-04-25T05:35:01;16.80;99.90
47626;DHT22;33342;45.574;9.252;2023-04-25T05:37:40;16.80;99.90
47626;DHT22;33342;45.574;9.252;2023-04-25T05:40:12;16.90;99.90
47626;DHT22;33342;45.574;9.252;2023-04-25T05:42:58;16.90;99.90
47626;DHT22;33342;45.574;9.252;2023-04-25T05:45:42;16.90;99.90
47626;DHT22;33342;45.574;9.252;2023-04-25T05:48:48;16.90;99.90
47626;DHT22;33342;45.574;9.252;2023-04-25T05:51:34;16.90;99.90
47626;DHT22;33342;45.574;9.252;2023-04-25T05:54:14;17.00;99.90
47626;DHT22;33342;45.574;9.252;2023-04-25T05:56:42;16.90;99.90
47626;DHT22;33342;45.574;9.252;2023-04-25T05:59:09;17.00;99.90
47626;DHT22;33342;45.574;9.252;2023-04-25T06:01:36;17.00;99.90
47626;DHT22;33342;45.574;9.252;2023-04-25T06:04:03;17.00;99.90
47626;DHT22;33342;45.574;9.252;2023-04-25T06:06:32;17.00;99.90
47626;DHT22;33342;45.574;9.252;2023-04-25T06:08:59;17.00;99.90
47626;DHT22;33342;45.574;9.252;2023-04-25T06:11:27;17.00;99.90
47626;DHT22;33342;45.574;9.252;2023-04-25T06:13:54;17.00;99.90
47626;DHT22;33342;45.574;9.252;2023-04-25T06:16:21;17.00;99.90
47626;DHT22;33342;45.574;9.252;2023-04-25T06:18:49;17.00;99.90
47626;DHT22;33342;45.574;9.252;2023-04-25T06:21:16;17.00;99.90
47626;DHT22;33342;45.574;9.252;2023-04-25T06:23:43;17.00;99.90
47626;DHT22;33342;45.574;9.252;2023-04-25T06:26:12;17.00;99.90
47626;DHT22;33342;45.574;9.252;2023-04-25T06:28:42;17.00;99.90
47626;DHT22;33342;45.574;9.252;2023-04-25T06:31:09;17.00;99.90
47626;DHT22;33342;45.574;9.252;2023-04-25T06:33:36;17.00;99.90
47626;DHT22;33342;45.574;9.252;2023-04-25T06:36:04;17.00;99.90
47626;DHT22;33342;45.574;9.252;2023-04-25T06:38:31;17.10;99.90
47626;DHT22;33342;45.574;9.252;2023-04-25T06:40:58;17.10;99.90
47626;DHT22;33342;45.574;9.252;2023-04-25T06:43:29;17.20;99.90
47626;DHT22;33342;45.574;9.252;2023-04-25T06:46:18;17.10;99.90
47626;DHT22;33342;45.574;9.252;2023-04-25T06:48:46;17.20;99.90
47626;DHT22;33342;45.574;9.252;2023-04-25T06:51:14;17.10;99.90
47626;DHT22;33342;45.574;9.252;2023-04-25T06:53:43;17.10;99.90
47626;DHT22;33342;45.574;9.252;2023-04-25T06:56:17;17.10;99.90
47626;DHT22;33342;45.574;9.252;2023-04-25T06:58:59;17.10;99.90
47626;DHT22;33342;45.574;9.252;2023-04-25T07:01:38;17.20;99.90
47626;DHT22;33342;45.574;9.252;2023-04-25T07:04:11;17.10;99.90
47626;DHT22;33342;45.574;9.252;2023-04-25T07:06:44;17.20;99.90
47626;DHT22;33342;45.574;9.252;2023-04-25T07:09:12;17.20;99.90
47626;DHT22;33342;45.574;9.252;2023-04-25T07:11:41;17.20;99.90
47626;DHT22;33342;45.574;9.252;2023-04-25T07:14:08;17.20;99.90
47626;DHT22;33342;45.574;9.252;2023-04-25T07:16:35;17.30;99.90
47626;DHT22;33342;45.574;9.252;2023-04-25T07:19:03;17.30;99.90
47626;DHT22;33342;45.574;9.252;2023-04-25T07:21:30;17.30;99.90
47626;DHT22;33342;45.574;9.252;2023-04-25T07:24:00;17.40;99.90
47626;DHT22;33342;45.574;9.252;2023-04-25T07:26:32;17.40;99.90
47626;DHT22;33342;45.574;9.252;2023-04-25T07:29:18;17.40;99.90
47626;DHT22;33342;45.574;9.252;2023-04-25T07:31:45;17.40;99.90
47626;DHT22;33342;45.574;9.252;2023-04-25T07:34:12;17.40;99.90
47626;DHT22;33342;45.574;9.252;2023-04-25T07:36:39;17.40;99.90
47626;DHT22;33342;45.574;9.252;2023-04-25T07:39:07;17.40;99.90
47626;DHT22;33342;45.574;9.252;2023-04-25T07:41:36;17.30;99.90
47626;DHT22;33342;45.574;9.252;2023-04-25T07:44:03;17.30;99.90
47626;DHT22;33342;45.574;9.252;2023-04-25T07:46:31;17.30;99.90
47626;DHT22;33342;45.574;9.252;2023-04-25T07:48:58;17.30;99.90
47626;DHT22;33342;45.574;9.252;2023-04-25T07:51:25;17.30;99.90
47626;DHT22;33342;45.574;9.252;2023-04-25T07:53:54;17.30;99.90
47626;DHT22;33342;45.574;9.252;2023-04-25T07:56:21;17.30;99.90
47626;DHT22;33342;45.574;9.252;2023-04-25T07:58:51;17.30;99.90
47626;DHT22;33342;45.574;9.252;2023-04-25T08:01:19;17.30;99.90
47626;DHT22;33342;45.574;9.252;2023-04-25T08:03:57;17.30;99.90
47626;DHT22;33342;45.574;9.252;2023-04-25T08:06:47;17.30;99.90
47626;DHT22;33342;45.574;9.252;2023-04-25T08:09:21;17.30;99.90
47626;DHT22;33342;45.574;9.252;2023-04-25T08:11:48;17.40;99.90
47626;DHT22;33342;45.574;9.252;2023-04-25T08:14:19;17.40;99.90
47626;DHT22;33342;45.574;9.252;2023-04-25T08:16:47;17.50;99.90
47626;DHT22;33342;45.574;9.252;2023-04-25T08:19:15;17.60;99.90
47626;DHT22;33342;45.574;9.252;2023-04-25T08:21:42;17.70;99.90
47626;DHT22;33342;45.574;9.252;2023-04-25T08:24:14;17.80;99.90
47626;DHT22;33342;45.574;9.252;2023-04-25T08:26:42;17.90;99.90
47626;DHT22;33342;45.574;9.252;2023-04-25T08:29:14;18.00;99.90
47626;DHT22;33342;45.574;9.252;2023-04-25T08:31:42;18.20;99.90
47626;DHT22;33342;45.574;9.252;2023-04-25T08:34:09;18.30;99.90
47626;DHT22;33342;45.574;9.252;2023-04-25T08:36:42;18.40;99.90
47626;DHT22;33342;45.574;9.252;2023-04-25T08:39:32;18.50;99.90
47626;DHT22;33342;45.574;9.252;2023-04-25T08:42:21;18.50;99.90
47626;DHT22;33342;45.574;9.252;2023-04-25T08:44:49;18.50;99.90
47626;DHT22;33342;45.574;9.252;2023-04-25T08:47:20;18.50;99.90
47626;DHT22;33342;45.574;9.252;2023-04-25T08:49:53;18.50;99.90
47626;DHT22;33342;45.574;9.252;2023-04-25T08:52:22;18.50;99.90
47626;DHT22;33342;45.574;9.252;2023-04-25T08:54:53;18.50;99.90
47626;DHT22;33342;45.574;9.252;2023-04-25T08:57:21;18.50;99.90
47626;DHT22;33342;45.574;9.252;2023-04-25T08:59:49;18.50;99.90
47626;DHT22;33342;45.574;9.252;2023-04-25T09:02:17;18.60;99.90
47626;DHT22;33342;45.574;9.252;2023-04-25T09:04:49;18.50;99.90
47626;DHT22;33342;45.574;9.252;2023-04-25T09:07:17;18.50;99.90
47626;DHT22;33342;45.574;9.252;2023-04-25T09:09:47;18.50;99.90
47626;DHT22;33342;45.574;9.252;2023-04-25T09:12:20;18.40;99.90
47626;DHT22;33342;45.574;9.252;2023-04-25T09:15:11;18.40;99.90
47626;DHT22;33342;45.574;9.252;2023-04-25T09:18:01;18.30;99.90
47626;DHT22;33342;45.574;9.252;2023-04-25T09:20:41;18.40;99.90
47626;DHT22;33342;45.574;9.252;2023-04-25T09:23:27;18.40;99.90
47626;DHT22;33342;45.574;9.252;2023-04-25T09:25:54;18.40;99.90
47626;DHT22;33342;45.574;9.252;2023-04-25T09:28:25;18.30;99.90
47626;DHT22;33342;45.574;9.252;2023-04-25T09:30:57;18.30;99.90
47626;DHT22;33342;45.574;9.252;2023-04-25T09:33:36;18.30;99.90
47626;DHT22;33342;45.574;9.252;2023-04-25T09:36:06;18.30;99.90
47626;DHT22;33342;45.574;9.252;2023-04-25T09:38:59;18.30;99.90
47626;DHT22;33342;45.574;9.252;2023-04-25T09:41:37;18.30;99.90
47626;DHT22;33342;45.574;9.252;2023-04-25T09:44:05;18.40;99.90
47626;DHT22;33342;45.574;9.252;2023-04-25T09:46:36;18.40;99.90
47626;DHT22;33342;45.574;9.252;2023-04-25T09:49:07;18.40;99.90
47626;DHT22;33342;45.574;9.252;2023-04-25T09:52:06;18.50;99.90
47626;DHT22;33342;45.574;9.252;2023-04-25T09:54:51;18.50;99.90
47626;DHT22;33342;45.574;9.252;2023-04-25T09:57:25;18.60;99.90
47626;DHT22;33342;45.574;9.252;2023-04-25T09:59:55;18.60;99.90
47626;DHT22;33342;45.574;9.252;2023-04-25T10:02:26;18.70;99.90
47626;DHT22;33342;45.574;9.252;2023-04-25T10:05:00;18.70;99.90
47626;DHT22;33342;45.574;9.252;2023-04-25T10:07:38;18.80;99.90
47626;DHT22;33342;45.574;9.252;2023-04-25T10:10:12;18.80;99.90
47626;DHT22;33342;45.574;9.252;2023-04-25T10:12:39;18.70;99.90
47626;DHT22;33342;45.574;9.252;2023-04-25T10:15:08;18.80;99.90
47626;DHT22;33342;45.574;9.252;2023-04-25T10:17:35;18.90;99.90
47626;DHT22;33342;45.574;9.252;2023-04-25T10:20:03;18.90;99.90
47626;DHT22;33342;45.574;9.252;2023-04-25T10:22:41;19.00;99.90
47626;DHT22;33342;45.574;9.252;2023-04-25T10:25:08;19.00;99.90
47626;DHT22;33342;45.574;9.252;2023-04-25T10:27:36;19.00;99.90
47626;DHT22;33342;45.574;9.252;2023-04-25T10:30:13;18.90;99.90
47626;DHT22;33342;45.574;9.252;2023-04-25T10:32:42;18.90;99.90
47626;DHT22;33342;45.574;9.252;2023-04-25T10:35:18;18.90;99.90
47626;DHT22;33342;45.574;9.252;2023-04-25T10:38:04;18.90;99.90
47626;DHT22;33342;45.574;9.252;2023-04-25T10:40:32;18.90;99.90
47626;DHT22;33342;45.574;9.252;2023-04-25T10:45:59;18.90;99.90
47626;DHT22;33342;45.574;9.252;2023-04-25T10:48:31;18.90;99.90
47626;DHT22;33342;45.574;9.252;2023-04-25T10:51:11;18.90;99.90
47626;DHT22;33342;45.574;9.252;2023-04-25T10:53:38;18.90;99.90
47626;DHT22;33342;45.574;9.252;2023-04-25T10:56:19;19.00;99.90
47626;DHT22;33342;45.574;9.252;2023-04-25T10:58:48;19.00;99.90
47626;DHT22;33342;45.574;9.252;2023-04-25T11:01:24;19.00;99.90
47626;DHT22;33342;45.574;9.252;2023-04-25T11:03:57;19.00;99.90
47626;DHT22;33342;45.574;9.252;2023-04-25T11:09:33;19.00;99.90
47626;DHT22;33342;45.574;9.252;2023-04-25T11:12:00;18.90;99.90
47626;DHT22;33342;45.574;9.252;2023-04-25T11:14:27;18.90;99.90
47626;DHT22;33342;45.574;9.252;2023-04-25T11:16:58;18.90;99.90
47626;DHT22;33342;45.574;9.252;2023-04-25T11:19:27;18.90;99.90
47626;DHT22;33342;45.574;9.252;2023-04-25T11:21:59;18.90;99.90
47626;DHT22;33342;45.574;9.252;2023-04-25T11:24:31;18.90;99.90
47626;DHT22;33342;45.574;9.252;2023-04-25T11:26:59;19.00;99.90
47626;DHT22;33342;45.574;9.252;2023-04-25T11:29:27;19.10;99.90
47626;DHT22;33342;45.574;9.252;2023-04-25T11:31:54;19.30;99.90
47626;DHT22;33342;45.574;9.252;2023-04-25T11:34:25;19.40;99.90
47626;DHT22;33342;45.574;9.252;2023-04-25T11:36:53;19.60;99.90
47626;DHT22;33342;45.574;9.252;2023-04-25T11:39:20;19.60;99.90
47626;DHT22;33342;45.574;9.252;2023-04-25T11:41:48;19.80;99.90
47626;DHT22;33342;45.574;9.252;2023-04-25T11:44:16;19.90;99.90
47626;DHT22;33342;45.574;9.252;2023-04-25T11:46:44;20.10;99.90
47626;DHT22;33342;45.574;9.252;2023-04-25T11:49:11;20.20;99.90
47626;DHT22;33342;45.574;9.252;2023-04-25T11:51:46;20.20;99.90
47626;DHT22;33342;45.574;9.252;2023-04-25T11:54:14;20.30;99.90
47626;DHT22;33342;45.574;9.252;2023-04-25T11:56:43;20.40;99.90
47626;DHT22;33342;45.574;9.252;2023-04-25T11:59:11;20.40;99.90
47626;DHT22;33342;45.574;9.252;2023-04-25T12:01:41;20.50;99.90
47626;DHT22;33342;45.574;9.252;2023-04-25T12:06:41;20.60;99.90
47626;DHT22;33342;45.574;9.252;2023-04-25T12:09:10;20.60;99.90
47626;DHT22;33342;45.574;9.252;2023-04-25T12:11:44;20.60;99.90
47626;DHT22;33342;45.574;9.252;2023-04-25T12:14:12;20.60;99.90
47626;DHT22;33342;45.574;9.252;2023-04-25T12:16:48;20.60;99.90
47626;DHT22;33342;45.574;9.252;2023-04-25T12:19:20;20.50;99.90
47626;DHT22;33342;45.574;9.252;2023-04-25T12:21:48;20.40;99.90
47626;DHT22;33342;45.574;9.252;2023-04-25T12:24:26;20.40;99.90
47626;DHT22;33342;45.574;9.252;2023-04-25T12:27:00;20.30;99.90
47626;DHT22;33342;45.574;9.252;2023-04-25T12:29:30;20.10;99.90
47626;DHT22;33342;45.574;9.252;2023-04-25T12:32:04;20.00;99.90
47626;DHT22;33342;45.574;9.252;2023-04-25T12:34:32;19.80;99.90
47626;DHT22;33342;45.574;9.252;2023-04-25T12:36:59;19.70;99.90
47626;DHT22;33342;45.574;9.252;2023-04-25T12:39:26;19.70;99.90
47626;DHT22;33342;45.574;9.252;2023-04-25T12:41:53;19.60;99.90
47626;DHT22;33342;45.574;9.252;2023-04-25T12:44:22;19.50;99.90
47626;DHT22;33342;45.574;9.252;2023-04-25T12:46:49;19.40;99.90
47626;DHT22;33342;45.574;9.252;2023-04-25T12:49:16;19.30;99.90
47626;DHT22;33342;45.574;9.252;2023-04-25T12:51:45;19.20;99.90
47626;DHT22;33342;45.574;9.252;2023-04-25T12:54:13;18.90;99.90
47626;DHT22;33342;45.574;9.252;2023-04-25T12:56:41;18.50;99.90
47626;DHT22;33342;45.574;9.252;2023-04-25T12:59:08;17.30;99.90
47626;DHT22;33342;45.574;9.252;2023-04-25T13:01:36;16.50;99.90
47626;DHT22;33342;45.574;9.252;2023-04-25T13:04:03;16.00;99.90
47626;DHT22;33342;45.574;9.252;2023-04-25T13:06:30;15.70;99.90
47626;DHT22;33342;45.574;9.252;2023-04-25T13:08:58;15.40;99.90
47626;DHT22;33342;45.574;9.252;2023-04-25T13:11:25;15.30;99.90
47626;DHT22;33342;45.574;9.252;2023-04-25T13:13:51;15.30;99.90
47626;DHT22;33342;45.574;9.252;2023-04-25T13:16:19;15.30;99.90
47626;DHT22;33342;45.574;9.252;2023-04-25T13:18:48;15.40;99.90
47626;DHT22;33342;45.574;9.252;2023-04-25T13:21:15;15.40;99.90
47626;DHT22;33342;45.574;9.252;2023-04-25T13:23:42;15.40;99.90
47626;DHT22;33342;45.574;9.252;2023-04-25T13:26:10;15.50;99.90
47626;DHT22;33342;45.574;9.252;2023-04-25T13:28:37;15.70;99.90
47626;DHT22;33342;45.574;9.252;2023-04-25T13:31:05;15.80;99.90
47626;DHT22;33342;45.574;9.252;2023-04-25T13:33:32;15.90;99.90
47626;DHT22;33342;45.574;9.252;2023-04-25T13:36:00;16.10;99.90
47626;DHT22;33342;45.574;9.252;2023-04-25T13:38:27;16.30;99.90
47626;DHT22;33342;45.574;9.252;2023-04-25T13:40:54;16.40;99.90
47626;DHT22;33342;45.574;9.252;2023-04-25T13:43:22;16.60;99.90
47626;DHT22;33342;45.574;9.252;2023-04-25T13:45:50;16.70;99.90
47626;DHT22;33342;45.574;9.252;2023-04-25T13:48:18;16.90;99.90
47626;DHT22;33342;45.574;9.252;2023-04-25T13:50:46;17.00;99.90
47626;DHT22;33342;45.574;9.252;2023-04-25T13:53:13;17.20;99.90
47626;DHT22;33342;45.574;9.252;2023-04-25T13:55:40;17.30;99.90
47626;DHT22;33342;45.574;9.252;2023-04-25T13:58:07;17.40;99.90
47626;DHT22;33342;45.574;9.252;2023-04-25T14:00:38;17.50;99.90
47626;DHT22;33342;45.574;9.252;2023-04-25T14:03:06;17.70;99.90
47626;DHT22;33342;45.574;9.252;2023-04-25T14:05:36;17.80;99.90
47626;DHT22;33342;45.574;9.252;2023-04-25T14:08:08;17.90;99.90
47626;DHT22;33342;45.574;9.252;2023-04-25T14:10:36;17.90;99.90
47626;DHT22;33342;45.574;9.252;2023-04-25T14:13:04;18.00;99.90
47626;DHT22;33342;45.574;9.252;2023-04-25T14:15:33;18.20;99.90
47626;DHT22;33342;45.574;9.252;2023-04-25T14:18:01;18.30;99.90
47626;DHT22;33342;45.574;9.252;2023-04-25T14:20:28;18.30;99.90
47626;DHT22;33342;45.574;9.252;2023-04-25T14:22:56;18.40;99.90
47626;DHT22;33342;45.574;9.252;2023-04-25T14:25:25;18.50;99.90
47626;DHT22;33342;45.574;9.252;2023-04-25T14:27:52;18.60;99.90
47626;DHT22;33342;45.574;9.252;2023-04-25T14:30:20;18.80;99.90
47626;DHT22;33342;45.574;9.252;2023-04-25T14:32:49;18.90;99.90
47626;DHT22;33342;45.574;9.252;2023-04-25T14:35:17;19.10;99.90
47626;DHT22;33342;45.574;9.252;2023-04-25T14:37:44;19.30;99.90
47626;DHT22;33342;45.574;9.252;2023-04-25T14:40:11;19.40;99.90
47626;DHT22;33342;45.574;9.252;2023-04-25T14:42:40;19.60;99.90
47626;DHT22;33342;45.574;9.252;2023-04-25T14:45:08;19.80;99.90
47626;DHT22;33342;45.574;9.252;2023-04-25T14:47:38;20.00;99.90
47626;DHT22;33342;45.574;9.252;2023-04-25T14:50:06;20.20;99.90
47626;DHT22;33342;45.574;9.252;2023-04-25T14:52:35;20.40;99.90
47626;DHT22;33342;45.574;9.252;2023-04-25T14:55:02;20.60;99.90
47626;DHT22;33342;45.574;9.252;2023-04-25T14:57:33;20.80;99.90
47626;DHT22;33342;45.574;9.252;2023-04-25T15:00:00;21.10;99.90
47626;DHT22;33342;45.574;9.252;2023-04-25T15:02:28;21.30;99.90
47626;DHT22;33342;45.574;9.252;2023-04-25T15:04:55;21.60;99.90
47626;DHT22;33342;45.574;9.252;2023-04-25T15:07:23;21.80;99.90
47626;DHT22;33342;45.574;9.252;2023-04-25T15:09:50;22.20;99.90
47626;DHT22;33342;45.574;9.252;2023-04-25T15:12:17;22.60;99.90
47626;DHT22;33342;45.574;9.252;2023-04-25T15:14:45;23.10;99.90
47626;DHT22;33342;45.574;9.252;2023-04-25T15:17:12;23.80;99.90
47626;DHT22;33342;45.574;9.252;2023-04-25T15:19:40;24.60;99.90
47626;DHT22;33342;45.574;9.252;2023-04-25T15:22:07;25.50;99.90
47626;DHT22;33342;45.574;9.252;2023-04-25T15:24:34;26.30;99.90
47626;DHT22;33342;45.574;9.252;2023-04-25T15:27:02;27.20;99.90
47626;DHT22;33342;45.574;9.252;2023-04-25T15:29:31;28.10;99.90
47626;DHT22;33342;45.574;9.252;2023-04-25T15:31:58;28.90;99.90
47626;DHT22;33342;45.574;9.252;2023-04-25T15:34:25;29.60;99.90
47626;DHT22;33342;45.574;9.252;2023-04-25T15:36:52;30.30;99.90
47626;DHT22;33342;45.574;9.252;2023-04-25T15:39:19;30.90;99.90
47626;DHT22;33342;45.574;9.252;2023-04-25T15:41:46;31.50;99.90
47626;DHT22;33342;45.574;9.252;2023-04-25T15:44:14;31.90;99.90
47626;DHT22;33342;45.574;9.252;2023-04-25T15:46:41;32.30;99.90
47626;DHT22;33342;45.574;9.252;2023-04-25T15:49:08;32.60;99.90
47626;DHT22;33342;45.574;9.252;2023-04-25T15:51:35;32.90;99.90
47626;DHT22;33342;45.574;9.252;2023-04-25T15:54:02;33.10;99.90
47626;DHT22;33342;45.574;9.252;2023-04-25T15:56:29;33.10;99.90
47626;DHT22;33342;45.574;9.252;2023-04-25T15:58:57;32.70;99.90
47626;DHT22;33342;45.574;9.252;2023-04-25T16:01:24;32.20;99.90